createdAt,value
2022-12-03T00:02:42.933Z,101101.00
2022-12-03T00:05:49.103Z,101103.50
2022-12-03T00:08:52.559Z,101106.81
2022-12-03T00:11:57.468Z,101109.50
2022-12-03T00:15:02.534Z,101114.75
2022-12-03T00:18:05.234Z,101113.16
2022-12-03T00:21:08.648Z,101116.66
2022-12-03T00:24:12.244Z,101111.69
2022-12-03T00:27:26.595Z,101123.66
2022-12-03T00:30:30.228Z,101119.28
2022-12-03T00:33:32.816Z,101120.09
2022-12-03T00:36:36.481Z,101124.41
2022-12-03T00:39:40.192Z,101121.09
2022-12-03T00:42:42.890Z,101123.72
2022-12-03T00:45:46.657Z,101128.63
2022-12-03T00:48:49.987Z,101125.13
2022-12-03T00:51:53.086Z,101132.03
2022-12-03T00:54:55.894Z,101124.47
2022-12-03T00:58:06.958Z,101133.75
2022-12-03T01:01:15.372Z,101126.88
2022-12-03T01:04:18.567Z,101117.47
2022-12-03T01:07:23.196Z,101120.91
2022-12-03T01:10:29.047Z,101114.97
2022-12-03T01:13:35.122Z,101123.38
2022-12-03T01:16:43.749Z,101123.31
2022-12-03T01:19:49.520Z,101125.03
2022-12-03T01:22:52.404Z,101118.03
2022-12-03T01:25:55.154Z,101118.13
2022-12-03T01:28:57.731Z,101122.38
2022-12-03T01:32:21.750Z,101125.88
2022-12-03T01:35:23.819Z,101119.50
2022-12-03T01:38:27.016Z,101115.37
2022-12-03T01:41:30.108Z,101131.66
2022-12-03T01:44:34.981Z,101129.00
2022-12-03T01:47:39.281Z,101136.88
2022-12-03T01:50:43.834Z,101126.56
2022-12-03T01:53:48.244Z,101133.50
2022-12-03T01:56:54.968Z,101133.44
2022-12-03T01:59:59.599Z,101133.50
2022-12-03T02:03:08.183Z,101130.34
2022-12-03T02:06:19.279Z,101130.19
2022-12-03T02:09:23.047Z,101122.59
2022-12-03T02:12:32.146Z,101124.41
2022-12-03T02:15:36.201Z,101122.59
2022-12-03T02:18:41.641Z,101118.97
2022-12-03T02:21:58.037Z,101118.03
2022-12-03T02:25:06.867Z,101118.69
2022-12-03T02:28:10.049Z,101114.38
2022-12-03T02:31:13.864Z,101115.16
2022-12-03T02:34:37.293Z,101121.87
2022-12-03T02:37:42.410Z,101121.78
2022-12-03T02:40:53.279Z,101123.38
2022-12-03T02:44:00.348Z,101120.97
2022-12-03T02:47:04.865Z,101123.28
2022-12-03T02:50:07.796Z,101115.75
2022-12-03T02:53:13.532Z,101120.91
2022-12-03T02:56:20.301Z,101122.78
2022-12-03T02:59:23.322Z,101129.53
2022-12-03T03:02:28.711Z,101121.81
2022-12-03T03:05:32.671Z,101127.88
2022-12-03T03:08:36.085Z,101129.41
2022-12-03T03:11:39.400Z,101120.16
2022-12-03T03:14:48.342Z,101115.06
2022-12-03T03:17:56.710Z,101116.66
2022-12-03T03:21:00.250Z,101115.09
2022-12-03T03:24:10.787Z,101118.59
2022-12-03T03:27:13.055Z,101123.62
2022-12-03T03:30:20.782Z,101126.88
2022-12-03T03:33:26.538Z,101131.66
2022-12-03T03:36:31.874Z,101129.16
2022-12-03T03:39:35.234Z,101121.50
2022-12-03T03:42:40.195Z,101116.69
2022-12-03T03:45:43.664Z,101123.28
2022-12-03T03:48:46.607Z,101118.28
2022-12-03T03:51:54.276Z,101130.19
2022-12-03T03:54:57.627Z,101126.88
2022-12-03T03:58:08.881Z,101125.03
2022-12-03T04:01:13.454Z,101127.56
2022-12-03T04:04:29.180Z,101122.34
2022-12-03T04:07:32.218Z,101116.41
2022-12-03T04:10:58.858Z,101118.31
2022-12-03T04:14:03.780Z,101126.75
2022-12-03T04:17:08.109Z,101131.87
2022-12-03T04:20:12.300Z,101133.50
2022-12-03T04:23:15.317Z,101128.41
2022-12-03T04:26:36.234Z,101127.59
2022-12-03T04:29:41.973Z,101130.88
2022-12-03T04:33:06.184Z,101123.38
2022-12-03T04:36:13.675Z,101136.97
2022-12-03T04:39:16.854Z,101126.44
2022-12-03T04:42:26.090Z,101121.44
2022-12-03T04:45:32.314Z,101124.81
2022-12-03T04:48:36.796Z,101123.34
2022-12-03T04:51:43.376Z,101125.94
2022-12-03T04:54:52.630Z,101126.78
2022-12-03T04:57:59.788Z,101132.72
2022-12-03T05:01:04.043Z,101131.94
2022-12-03T05:04:09.875Z,101135.31
2022-12-03T05:07:18.739Z,101136.88
2022-12-03T05:10:23.558Z,101130.88
2022-12-03T05:13:35.551Z,101130.06
2022-12-03T05:16:39.845Z,101142.94
2022-12-03T05:20:06.512Z,101146.56
2022-12-03T05:23:13.918Z,101152.81
2022-12-03T05:26:17.105Z,101151.97
2022-12-03T05:29:19.675Z,101152.00
2022-12-03T05:32:24.860Z,101141.94
2022-12-03T05:35:32.030Z,101141.22
2022-12-03T05:38:34.487Z,101143.66
2022-12-03T05:41:55.705Z,101142.72
2022-12-03T05:44:58.535Z,101151.28
2022-12-03T05:48:03.123Z,101150.34
2022-12-03T05:51:07.242Z,101154.56
2022-12-03T05:54:10.021Z,101156.13
2022-12-03T05:57:13.121Z,101155.16
2022-12-03T06:00:21.463Z,101167.44
2022-12-03T06:03:25.094Z,101159.50
2022-12-03T06:06:28.295Z,101175.19
2022-12-03T06:09:31.651Z,101174.19
2022-12-03T06:12:34.327Z,101181.47
2022-12-03T06:15:43.293Z,101171.34
2022-12-03T06:18:46.391Z,101165.16
2022-12-03T06:21:49.139Z,101165.25
2022-12-03T06:24:52.497Z,101162.81
2022-12-03T06:27:55.770Z,101172.97
2022-12-03T06:30:58.306Z,101160.62
2022-12-03T06:34:00.731Z,101153.78
2022-12-03T06:37:03.326Z,101156.22
2022-12-03T06:40:06.725Z,101160.66
2022-12-03T06:43:10.006Z,101171.66
2022-12-03T06:46:13.278Z,101177.09
2022-12-03T06:49:17.921Z,101169.94
2022-12-03T06:52:21.345Z,101159.72
2022-12-03T06:55:24.510Z,101167.47
2022-12-03T06:58:26.700Z,101172.59
2022-12-03T07:01:29.306Z,101171.63
2022-12-03T07:04:32.965Z,101164.78
2022-12-03T07:07:35.811Z,101170.53
2022-12-03T07:10:38.763Z,101166.91
2022-12-03T07:13:41.958Z,101165.16
2022-12-03T07:16:45.164Z,101169.34
2022-12-03T07:19:48.445Z,101169.50
2022-12-03T07:22:51.333Z,101173.25
2022-12-03T07:25:54.422Z,101174.16
2022-12-03T07:28:58.719Z,101171.78
2022-12-03T07:32:02.118Z,101171.38
2022-12-03T07:35:07.929Z,101171.25
2022-12-03T07:38:10.378Z,101176.22
2022-12-03T07:41:16.408Z,101171.09
2022-12-03T07:44:19.807Z,101186.56
2022-12-03T07:47:23.517Z,101179.78
2022-12-03T07:50:28.692Z,101184.16
2022-12-03T07:53:33.484Z,101163.53
2022-12-03T07:56:36.417Z,101168.19
2022-12-03T07:59:39.461Z,101167.47
2022-12-03T08:02:42.317Z,101164.12
2022-12-03T08:05:46.561Z,101169.75
2022-12-03T08:08:48.834Z,101161.53
2022-12-03T08:11:52.325Z,101172.47
2022-12-03T08:14:55.362Z,101176.63
2022-12-03T08:18:03.327Z,101167.22
2022-12-03T08:21:06.621Z,101174.34
2022-12-03T08:24:14.302Z,101182.22
2022-12-03T08:27:20.528Z,101184.72
2022-12-03T08:30:23.847Z,101184.88
2022-12-03T08:33:29.166Z,101187.91
2022-12-03T08:36:33.243Z,101186.97
2022-12-03T08:39:38.493Z,101188.97
2022-12-03T08:42:44.385Z,101187.22
2022-12-03T08:45:51.185Z,101185.87
2022-12-03T08:48:54.837Z,101185.34
2022-12-03T08:52:00.515Z,101186.56
2022-12-03T08:55:23.323Z,101191.19
2022-12-03T08:58:33.832Z,101202.94
2022-12-03T09:01:43.803Z,101203.50
2022-12-03T09:04:47.341Z,101205.75
2022-12-03T09:07:50.445Z,101204.09
2022-12-03T09:10:53.780Z,101198.19
2022-12-03T09:13:57.066Z,101200.81
2022-12-03T09:17:00.018Z,101205.66
2022-12-03T09:20:02.828Z,101197.03
2022-12-03T09:23:05.392Z,101192.19
2022-12-03T09:26:08.008Z,101182.44
2022-12-03T09:29:12.580Z,101174.41
2022-12-03T09:32:18.583Z,101185.87
2022-12-03T09:35:21.672Z,101189.69
2022-12-03T09:38:24.053Z,101181.47
2022-12-03T09:41:27.033Z,101178.50
2022-12-03T09:44:33.166Z,101181.75
2022-12-03T09:47:35.889Z,101180.94
2022-12-03T09:50:44.913Z,101166.09
2022-12-03T09:53:48.205Z,101167.19
2022-12-03T09:56:52.916Z,101174.28
2022-12-03T09:59:57.153Z,101169.78
2022-12-03T10:03:05.394Z,101174.62
2022-12-03T10:06:10.243Z,101169.13
2022-12-03T10:09:16.309Z,101164.19
2022-12-03T10:12:23.393Z,101165.81
2022-12-03T10:15:25.799Z,101158.28
2022-12-03T10:18:31.108Z,101151.66
2022-12-03T10:21:38.250Z,101152.44
2022-12-03T10:24:40.650Z,101141.59
2022-12-03T10:27:42.950Z,101141.44
2022-12-03T10:30:53.941Z,101132.63
2022-12-03T10:33:58.675Z,101137.97
2022-12-03T10:37:17.562Z,101131.09
2022-12-03T10:40:24.084Z,101120.91
2022-12-03T10:43:26.152Z,101121.22
2022-12-03T10:46:28.791Z,101125.44
2022-12-03T10:49:31.152Z,101113.03
2022-12-03T10:52:34.138Z,101108.47
2022-12-03T10:55:39.126Z,101111.28
2022-12-03T10:58:42.241Z,101106.41
2022-12-03T11:01:44.927Z,101109.31
2022-12-03T11:04:47.419Z,101106.00
2022-12-03T11:07:50.361Z,101095.22
2022-12-03T11:11:00.036Z,101101.19
2022-12-03T11:14:03.527Z,101091.69
2022-12-03T11:17:07.215Z,101086.69
2022-12-03T11:20:22.545Z,101087.59
2022-12-03T11:23:44.082Z,101077.25
2022-12-03T11:26:46.306Z,101083.94
2022-12-03T11:29:56.803Z,101077.72
2022-12-03T11:32:59.764Z,101071.25
2022-12-03T11:36:05.190Z,101066.12
2022-12-03T11:39:08.487Z,101065.75
2022-12-03T11:42:26.254Z,101060.37
2022-12-03T11:45:30.535Z,101065.19
2022-12-03T11:48:32.706Z,101069.28
2022-12-03T11:51:35.083Z,101061.22
2022-12-03T11:54:37.550Z,101064.97
2022-12-03T11:57:40.033Z,101058.84
2022-12-03T12:00:49.413Z,101047.75
2022-12-03T12:03:51.746Z,101053.09
2022-12-03T12:06:54.378Z,101047.34
2022-12-03T12:09:57.583Z,101048.81
2022-12-03T12:13:00.346Z,101044.38
2022-12-03T12:16:05.655Z,101039.34
2022-12-03T12:19:26.387Z,101024.59
2022-12-03T12:22:30.096Z,101024.84
2022-12-03T12:25:37.975Z,101033.16
2022-12-03T12:28:40.482Z,101035.81
2022-12-03T12:31:43.730Z,101037.09
2022-12-03T12:34:47.576Z,101030.34
2022-12-03T12:37:58.067Z,101026.78
2022-12-03T12:41:05.508Z,101034.28
2022-12-03T12:44:11.357Z,101025.94
2022-12-03T12:47:14.193Z,101029.03
2022-12-03T12:50:19.065Z,101019.81
2022-12-03T12:53:25.466Z,101017.47
2022-12-03T12:56:31.051Z,101017.19
2022-12-03T12:59:33.418Z,101014.62
2022-12-03T13:06:09.743Z,101018.34
2022-12-03T13:09:50.063Z,101010.28
2022-12-03T13:13:09.130Z,101005.03
2022-12-03T13:16:44.820Z,101018.34
2022-12-03T13:20:00.450Z,101023.09
2022-12-03T13:23:21.323Z,101024.44
2022-12-03T13:26:38.271Z,101017.38
2022-12-03T13:29:41.510Z,101019.13
2022-12-03T13:32:44.213Z,101024.94
2022-12-03T13:35:47.223Z,101028.53
2022-12-03T13:38:49.822Z,101023.19
2022-12-03T13:42:10.791Z,101021.72
2022-12-03T13:45:16.070Z,101029.50
2022-12-03T13:48:29.805Z,101028.53
2022-12-03T13:51:32.986Z,101018.97
2022-12-03T13:54:38.045Z,101021.78
2022-12-03T13:57:40.183Z,101019.19
2022-12-03T14:00:42.477Z,101031.16
2022-12-03T14:03:44.997Z,101036.44
2022-12-03T14:06:47.167Z,101034.69
2022-12-03T14:09:49.330Z,101033.13
2022-12-03T14:12:51.669Z,101034.38
2022-12-03T14:15:54.573Z,101032.91
2022-12-03T14:18:57.197Z,101038.88
2022-12-03T14:22:00.940Z,101034.75
2022-12-03T14:25:03.660Z,101037.41
2022-12-03T14:28:09.265Z,101035.12
2022-12-03T14:31:11.713Z,101042.72
2022-12-03T14:34:15.651Z,101044.81
2022-12-03T14:37:19.273Z,101043.97
2022-12-03T14:40:22.287Z,101049.16
2022-12-03T14:43:25.033Z,101045.78
2022-12-03T14:46:27.677Z,101042.53
2022-12-03T14:49:30.340Z,101037.41
2022-12-03T14:52:33.125Z,101041.19
2022-12-03T14:55:35.498Z,101041.81
2022-12-03T14:58:38.078Z,101038.56
2022-12-03T15:01:42.498Z,101045.72
2022-12-03T15:04:45.393Z,101044.44
2022-12-03T15:07:48.699Z,101046.16
2022-12-03T15:10:51.201Z,101041.91
2022-12-03T15:13:53.704Z,101050.25
2022-12-03T15:16:56.185Z,101054.28
2022-12-03T15:19:58.807Z,101044.00
2022-12-03T15:23:01.485Z,101045.94
2022-12-03T15:26:04.491Z,101045.06
2022-12-03T15:29:07.247Z,101051.47
2022-12-03T15:32:09.995Z,101053.56
2022-12-03T15:35:18.660Z,101051.41
2022-12-03T15:38:21.020Z,101057.00
2022-12-03T15:41:30.047Z,101054.66
2022-12-03T15:44:32.648Z,101051.34
2022-12-03T15:47:35.320Z,101052.72
2022-12-03T15:50:40.311Z,101055.56
2022-12-03T15:53:43.161Z,101055.72
2022-12-03T15:56:45.961Z,101060.13
2022-12-03T16:00:08.981Z,101050.72
2022-12-03T16:03:12.246Z,101055.97
2022-12-03T16:06:15.219Z,101045.78
2022-12-03T16:09:22.336Z,101051.88
2022-12-03T16:12:29.341Z,101052.94
2022-12-03T16:15:32.909Z,101047.28
2022-12-03T16:18:36.093Z,101054.13
2022-12-03T16:21:40.043Z,101065.44
2022-12-03T16:24:43.065Z,101067.19
2022-12-03T16:27:48.444Z,101066.50
2022-12-03T16:31:15.635Z,101058.06
2022-12-03T16:34:18.211Z,101062.50
2022-12-03T16:37:21.713Z,101055.88
2022-12-03T16:40:24.990Z,101057.50
2022-12-03T16:43:29.030Z,101059.09
2022-12-03T16:46:31.771Z,101068.75
2022-12-03T16:49:34.704Z,101057.66
2022-12-03T16:52:37.639Z,101049.16
2022-12-03T16:55:40.479Z,101061.25
2022-12-03T16:58:44.580Z,101058.53
2022-12-03T17:01:48.144Z,101061.19
2022-12-03T17:04:52.201Z,101063.06
2022-12-03T17:07:55.223Z,101057.03
2022-12-03T17:10:57.955Z,101067.50
2022-12-03T17:14:01.470Z,101062.34
2022-12-03T17:17:06.010Z,101052.12
2022-12-03T17:20:08.984Z,101059.06
2022-12-03T17:23:12.690Z,101059.91
2022-12-03T17:26:16.010Z,101051.31
2022-12-03T17:29:19.394Z,101058.78
2022-12-03T17:32:25.879Z,101056.41
2022-12-03T17:35:30.328Z,101058.13
2022-12-03T17:38:38.778Z,101059.75
2022-12-03T17:41:43.820Z,101056.38
2022-12-03T17:44:47.566Z,101057.28
2022-12-03T17:47:51.221Z,101056.22
2022-12-03T17:50:58.284Z,101058.03
2022-12-03T17:54:01.154Z,101059.06
2022-12-03T17:57:04.229Z,101057.47
2022-12-03T18:00:07.262Z,101048.06
2022-12-03T18:03:10.647Z,101058.31
2022-12-03T18:06:13.434Z,101055.91
2022-12-03T18:09:16.423Z,101055.06
2022-12-03T18:12:19.727Z,101055.34
2022-12-03T18:15:23.993Z,101057.16
2022-12-03T18:18:28.978Z,101056.38
2022-12-03T18:21:31.482Z,101051.00
2022-12-03T18:24:34.450Z,101062.22
2022-12-03T18:27:38.857Z,101052.00
2022-12-03T18:30:45.126Z,101057.97
2022-12-03T18:33:53.780Z,101060.50
2022-12-03T18:36:57.198Z,101061.44
2022-12-03T18:40:01.306Z,101068.50
2022-12-03T18:43:06.584Z,101062.66
2022-12-03T18:46:45.024Z,101069.50
2022-12-03T18:49:40.043Z,101071.34
2022-12-03T18:52:43.701Z,101074.16
2022-12-03T18:55:48.090Z,101079.22
2022-12-03T18:58:52.804Z,101073.94
2022-12-03T19:01:59.702Z,101077.56
2022-12-03T19:05:03.101Z,101071.50
2022-12-03T19:08:15.309Z,101068.88
2022-12-03T19:11:18.621Z,101053.66
2022-12-03T19:14:21.180Z,101056.34
2022-12-03T19:17:24.197Z,101052.94
2022-12-03T19:20:27.607Z,101061.59
2022-12-03T19:23:32.116Z,101065.59
2022-12-03T19:26:36.627Z,101066.44
2022-12-03T19:29:39.529Z,101073.28
2022-12-03T19:32:42.210Z,101069.03
2022-12-03T19:35:48.511Z,101072.50
2022-12-03T19:38:56.836Z,101071.59
2022-12-03T19:42:00.934Z,101080.44
2022-12-03T19:45:03.798Z,101083.78
2022-12-03T19:48:08.423Z,101081.22
2022-12-03T19:51:33.179Z,101086.31
2022-12-03T19:54:34.830Z,101089.72
2022-12-03T19:57:37.791Z,101093.09
2022-12-03T20:00:43.571Z,101089.56
2022-12-03T20:03:47.484Z,101081.09
2022-12-03T20:06:50.768Z,101084.31
2022-12-03T20:09:56.676Z,101083.53
2022-12-03T20:13:02.258Z,101086.91
2022-12-03T20:16:10.187Z,101086.03
2022-12-03T20:19:14.511Z,101092.88
2022-12-03T20:22:17.493Z,101090.59
2022-12-03T20:25:22.551Z,101089.56
2022-12-03T20:28:25.426Z,101087.75
2022-12-03T20:31:30.595Z,101085.78
2022-12-03T20:34:36.745Z,101082.41
2022-12-03T20:37:41.973Z,101073.97
2022-12-03T20:40:46.401Z,101077.47
2022-12-03T20:43:49.302Z,101081.09
2022-12-03T20:46:51.780Z,101075.97
2022-12-03T20:49:55.969Z,101083.72
2022-12-03T20:53:23.337Z,101073.22
2022-12-03T20:56:24.296Z,101075.69
2022-12-03T20:59:27.423Z,101076.19
2022-12-03T21:02:30.207Z,101080.53
2022-12-03T21:05:34.088Z,101083.94
2022-12-03T21:08:41.687Z,101085.63
2022-12-03T21:11:46.422Z,101065.66
2022-12-03T21:14:48.969Z,101069.25
2022-12-03T21:17:51.140Z,101071.13
2022-12-03T21:20:53.583Z,101068.66
2022-12-03T21:23:56.303Z,101064.25
2022-12-03T21:26:59.039Z,101064.31
2022-12-03T21:30:01.963Z,101070.38
2022-12-03T21:33:10.749Z,101079.88
2022-12-03T21:36:18.882Z,101078.19
2022-12-03T21:39:22.103Z,101075.62
2022-12-03T21:42:35.505Z,101073.12
2022-12-03T21:45:42.958Z,101071.53
2022-12-03T21:48:46.012Z,101057.66
2022-12-03T21:51:48.560Z,101059.34
2022-12-03T21:54:54.113Z,101056.69
2022-12-03T21:57:57.413Z,101062.62
2022-12-03T22:01:00.005Z,101070.94
2022-12-03T22:04:02.601Z,101064.91
2022-12-03T22:07:05.703Z,101062.12
2022-12-03T22:10:11.840Z,101064.28
2022-12-03T22:13:15.346Z,101071.94
2022-12-03T22:16:21.168Z,101063.84
2022-12-03T22:19:26.333Z,101069.25
2022-12-03T22:22:29.553Z,101056.31
2022-12-03T22:25:33.033Z,101063.25
2022-12-03T22:28:37.156Z,101057.41
2022-12-03T22:31:42.197Z,101051.53
2022-12-03T22:34:46.396Z,101050.78
2022-12-03T22:37:49.008Z,101049.03
2022-12-03T22:40:53.035Z,101054.00
2022-12-03T22:43:55.695Z,101045.50
2022-12-03T22:46:58.814Z,101045.66
2022-12-03T22:50:04.507Z,101044.81
2022-12-03T22:53:11.941Z,101042.94
2022-12-03T22:56:18.623Z,101048.81
2022-12-03T22:59:21.516Z,101053.84
2022-12-03T23:02:25.137Z,101048.72
2022-12-03T23:05:32.113Z,101042.56
2022-12-03T23:08:35.218Z,101034.53
2022-12-03T23:11:38.719Z,101036.22
2022-12-03T23:14:42.468Z,101038.78
2022-12-03T23:17:44.997Z,101033.59
2022-12-03T23:20:57.089Z,101038.06
2022-12-03T23:24:01.021Z,101034.69
2022-12-03T23:27:04.289Z,101039.97
2022-12-03T23:30:08.164Z,101028.72
2022-12-03T23:33:10.631Z,101022.69
2022-12-03T23:36:13.688Z,101033.06
2022-12-03T23:39:16.882Z,101026.13
2022-12-03T23:42:20.498Z,101020.94
2022-12-03T23:45:23.659Z,101018.47
2022-12-03T23:48:26.369Z,101021.66
2022-12-03T23:51:28.990Z,101017.50
2022-12-03T23:54:32.778Z,101015.06
2022-12-03T23:57:37.924Z,101016.13
